sensor_id;sensor_type;location;lat;lon;timestamp;P1;durP1;ratioP1;P2;durP2;ratioP2
71696;SDS011;68167;59.120;37.898;2023-03-05T00:01:18;5.60;;;3.80;;
71696;SDS011;68167;59.120;37.898;2023-03-05T00:03:49;7.10;;;4.33;;
71696;SDS011;68167;59.120;37.898;2023-03-05T00:06:18;6.13;;;3.67;;
71696;SDS011;68167;59.120;37.898;2023-03-05T00:08:46;6.07;;;3.97;;
71696;SDS011;68167;59.120;37.898;2023-03-05T00:11:13;9.53;;;3.80;;
71696;SDS011;68167;59.120;37.898;2023-03-05T00:13:40;8.33;;;3.90;;
71696;SDS011;68167;59.120;37.898;2023-03-05T00:16:08;9.47;;;3.67;;
71696;SDS011;68167;59.120;37.898;2023-03-05T00:18:37;6.50;;;4.00;;
71696;SDS011;68167;59.120;37.898;2023-03-05T00:21:04;7.07;;;3.90;;
71696;SDS011;68167;59.120;37.898;2023-03-05T00:23:42;5.53;;;3.87;;
71696;SDS011;68167;59.120;37.898;2023-03-05T00:26:09;4.93;;;3.67;;
71696;SDS011;68167;59.120;37.898;2023-03-05T00:28:36;4.93;;;3.40;;
71696;SDS011;68167;59.120;37.898;2023-03-05T00:31:02;4.70;;;3.10;;
71696;SDS011;68167;59.120;37.898;2023-03-05T00:33:30;5.00;;;3.77;;
71696;SDS011;68167;59.120;37.898;2023-03-05T00:35:57;6.27;;;4.57;;
71696;SDS011;68167;59.120;37.898;2023-03-05T00:38:26;8.70;;;4.67;;
71696;SDS011;68167;59.120;37.898;2023-03-05T00:40:53;6.53;;;3.63;;
71696;SDS011;68167;59.120;37.898;2023-03-05T00:43:19;5.83;;;3.27;;
71696;SDS011;68167;59.120;37.898;2023-03-05T00:45:46;4.83;;;2.80;;
71696;SDS011;68167;59.120;37.898;2023-03-05T00:48:12;6.20;;;3.50;;
71696;SDS011;68167;59.120;37.898;2023-03-05T00:50:39;4.57;;;3.17;;
71696;SDS011;68167;59.120;37.898;2023-03-05T00:53:05;3.10;;;2.50;;
71696;SDS011;68167;59.120;37.898;2023-03-05T00:55:32;8.57;;;2.83;;
71696;SDS011;68167;59.120;37.898;2023-03-05T00:58:01;4.87;;;2.37;;
71696;SDS011;68167;59.120;37.898;2023-03-05T01:00:27;5.53;;;2.67;;
71696;SDS011;68167;59.120;37.898;2023-03-05T01:02:54;6.60;;;2.13;;
71696;SDS011;68167;59.120;37.898;2023-03-05T01:05:21;3.17;;;1.97;;
71696;SDS011;68167;59.120;37.898;2023-03-05T01:07:50;3.67;;;2.03;;
71696;SDS011;68167;59.120;37.898;2023-03-05T01:10:17;7.70;;;1.90;;
71696;SDS011;68167;59.120;37.898;2023-03-05T01:12:44;4.00;;;2.17;;
71696;SDS011;68167;59.120;37.898;2023-03-05T01:15:11;4.00;;;2.20;;
71696;SDS011;68167;59.120;37.898;2023-03-05T01:17:38;5.30;;;3.23;;
71696;SDS011;68167;59.120;37.898;2023-03-05T01:20:04;5.23;;;3.83;;
71696;SDS011;68167;59.120;37.898;2023-03-05T01:22:33;6.63;;;4.00;;
71696;SDS011;68167;59.120;37.898;2023-03-05T01:25:00;5.23;;;3.70;;
71696;SDS011;68167;59.120;37.898;2023-03-05T01:27:26;4.77;;;2.90;;
71696;SDS011;68167;59.120;37.898;2023-03-05T01:29:53;6.33;;;3.23;;
71696;SDS011;68167;59.120;37.898;2023-03-05T01:32:19;6.93;;;3.77;;
71696;SDS011;68167;59.120;37.898;2023-03-05T01:34:46;6.10;;;3.60;;
71696;SDS011;68167;59.120;37.898;2023-03-05T01:37:13;4.57;;;3.43;;
71696;SDS011;68167;59.120;37.898;2023-03-05T01:39:39;6.83;;;3.77;;
71696;SDS011;68167;59.120;37.898;2023-03-05T01:42:05;3.70;;;2.80;;
71696;SDS011;68167;59.120;37.898;2023-03-05T01:44:33;6.47;;;3.47;;
71696;SDS011;68167;59.120;37.898;2023-03-05T01:47:01;7.00;;;3.33;;
71696;SDS011;68167;59.120;37.898;2023-03-05T01:49:32;4.13;;;3.20;;
71696;SDS011;68167;59.120;37.898;2023-03-05T01:52:06;5.47;;;3.20;;
71696;SDS011;68167;59.120;37.898;2023-03-05T01:54:44;5.97;;;3.87;;
71696;SDS011;68167;59.120;37.898;2023-03-05T01:57:36;5.00;;;3.50;;
71696;SDS011;68167;59.120;37.898;2023-03-05T02:00:05;4.20;;;2.67;;
71696;SDS011;68167;59.120;37.898;2023-03-05T02:02:40;4.47;;;2.90;;
71696;SDS011;68167;59.120;37.898;2023-03-05T02:05:10;3.57;;;2.60;;
71696;SDS011;68167;59.120;37.898;2023-03-05T02:07:55;3.73;;;2.70;;
71696;SDS011;68167;59.120;37.898;2023-03-05T02:10:23;3.37;;;2.57;;
71696;SDS011;68167;59.120;37.898;2023-03-05T02:12:56;5.23;;;2.90;;
71696;SDS011;68167;59.120;37.898;2023-03-05T02:15:27;5.13;;;2.50;;
71696;SDS011;68167;59.120;37.898;2023-03-05T02:17:54;4.10;;;2.67;;
71696;SDS011;68167;59.120;37.898;2023-03-05T02:20:22;3.37;;;2.50;;
71696;SDS011;68167;59.120;37.898;2023-03-05T02:22:50;4.07;;;2.77;;
71696;SDS011;68167;59.120;37.898;2023-03-05T02:25:18;7.13;;;2.70;;
71696;SDS011;68167;59.120;37.898;2023-03-05T02:28:07;4.37;;;2.60;;
71696;SDS011;68167;59.120;37.898;2023-03-05T02:30:37;3.67;;;2.30;;
71696;SDS011;68167;59.120;37.898;2023-03-05T02:33:03;3.57;;;2.40;;
71696;SDS011;68167;59.120;37.898;2023-03-05T02:35:30;2.83;;;2.10;;
71696;SDS011;68167;59.120;37.898;2023-03-05T02:37:57;3.90;;;2.60;;
71696;SDS011;68167;59.120;37.898;2023-03-05T02:40:23;2.80;;;2.13;;
71696;SDS011;68167;59.120;37.898;2023-03-05T02:42:50;5.00;;;2.20;;
71696;SDS011;68167;59.120;37.898;2023-03-05T02:45:17;3.53;;;2.23;;
71696;SDS011;68167;59.120;37.898;2023-03-05T02:47:43;4.40;;;2.20;;
71696;SDS011;68167;59.120;37.898;2023-03-05T02:50:10;6.90;;;3.60;;
71696;SDS011;68167;59.120;37.898;2023-03-05T02:52:37;3.00;;;1.97;;
71696;SDS011;68167;59.120;37.898;2023-03-05T02:55:07;2.93;;;2.03;;
71696;SDS011;68167;59.120;37.898;2023-03-05T02:57:34;3.90;;;1.90;;
71696;SDS011;68167;59.120;37.898;2023-03-05T03:00:00;2.43;;;1.90;;
71696;SDS011;68167;59.120;37.898;2023-03-05T03:02:27;3.83;;;2.43;;
71696;SDS011;68167;59.120;37.898;2023-03-05T03:04:54;3.53;;;2.20;;
71696;SDS011;68167;59.120;37.898;2023-03-05T03:07:20;3.40;;;2.37;;
71696;SDS011;68167;59.120;37.898;2023-03-05T03:09:47;5.23;;;2.33;;
71696;SDS011;68167;59.120;37.898;2023-03-05T03:12:14;5.17;;;2.53;;
71696;SDS011;68167;59.120;37.898;2023-03-05T03:14:40;6.80;;;2.67;;
71696;SDS011;68167;59.120;37.898;2023-03-05T03:17:08;6.57;;;2.60;;
71696;SDS011;68167;59.120;37.898;2023-03-05T03:19:37;3.70;;;2.13;;
71696;SDS011;68167;59.120;37.898;2023-03-05T03:22:05;4.23;;;2.40;;
71696;SDS011;68167;59.120;37.898;2023-03-05T03:24:33;4.63;;;2.43;;
71696;SDS011;68167;59.120;37.898;2023-03-05T03:27:01;4.20;;;2.70;;
71696;SDS011;68167;59.120;37.898;2023-03-05T03:29:28;3.47;;;2.20;;
71696;SDS011;68167;59.120;37.898;2023-03-05T03:31:55;3.33;;;2.07;;
71696;SDS011;68167;59.120;37.898;2023-03-05T03:34:22;3.70;;;2.23;;
71696;SDS011;68167;59.120;37.898;2023-03-05T03:36:49;6.40;;;2.20;;
71696;SDS011;68167;59.120;37.898;2023-03-05T03:39:18;6.10;;;2.00;;
71696;SDS011;68167;59.120;37.898;2023-03-05T03:41:48;3.83;;;1.90;;
71696;SDS011;68167;59.120;37.898;2023-03-05T03:44:16;2.97;;;1.90;;
71696;SDS011;68167;59.120;37.898;2023-03-05T03:46:44;4.03;;;2.10;;
71696;SDS011;68167;59.120;37.898;2023-03-05T03:49:19;2.67;;;1.93;;
71696;SDS011;68167;59.120;37.898;2023-03-05T03:51:48;3.13;;;2.07;;
71696;SDS011;68167;59.120;37.898;2023-03-05T03:54:15;3.97;;;1.90;;
71696;SDS011;68167;59.120;37.898;2023-03-05T03:56:43;3.10;;;1.87;;
71696;SDS011;68167;59.120;37.898;2023-03-05T03:59:11;3.33;;;2.00;;
71696;SDS011;68167;59.120;37.898;2023-03-05T04:01:38;3.27;;;2.17;;
71696;SDS011;68167;59.120;37.898;2023-03-05T04:04:04;2.60;;;1.97;;
71696;SDS011;68167;59.120;37.898;2023-03-05T04:06:31;3.10;;;2.20;;
71696;SDS011;68167;59.120;37.898;2023-03-05T04:08:59;3.30;;;2.20;;
71696;SDS011;68167;59.120;37.898;2023-03-05T04:11:28;3.90;;;1.90;;
71696;SDS011;68167;59.120;37.898;2023-03-05T04:13:55;4.50;;;2.07;;
71696;SDS011;68167;59.120;37.898;2023-03-05T04:16:21;2.90;;;2.00;;
71696;SDS011;68167;59.120;37.898;2023-03-05T04:18:57;3.87;;;2.10;;
71696;SDS011;68167;59.120;37.898;2023-03-05T04:21:23;8.07;;;2.30;;
71696;SDS011;68167;59.120;37.898;2023-03-05T04:23:50;2.97;;;2.10;;
71696;SDS011;68167;59.120;37.898;2023-03-05T04:26:17;3.77;;;2.43;;
71696;SDS011;68167;59.120;37.898;2023-03-05T04:28:45;4.10;;;2.10;;
71696;SDS011;68167;59.120;37.898;2023-03-05T04:31:13;4.67;;;2.20;;
71696;SDS011;68167;59.120;37.898;2023-03-05T04:33:39;4.53;;;2.10;;
71696;SDS011;68167;59.120;37.898;2023-03-05T04:36:06;4.57;;;2.50;;
71696;SDS011;68167;59.120;37.898;2023-03-05T04:38:33;4.63;;;2.30;;
71696;SDS011;68167;59.120;37.898;2023-03-05T04:40:59;4.40;;;2.20;;
71696;SDS011;68167;59.120;37.898;2023-03-05T04:43:26;4.60;;;2.40;;
71696;SDS011;68167;59.120;37.898;2023-03-05T04:45:55;4.30;;;2.37;;
71696;SDS011;68167;59.120;37.898;2023-03-05T04:48:22;4.03;;;2.47;;
71696;SDS011;68167;59.120;37.898;2023-03-05T04:50:48;3.87;;;2.57;;
71696;SDS011;68167;59.120;37.898;2023-03-05T04:53:15;4.87;;;2.23;;
71696;SDS011;68167;59.120;37.898;2023-03-05T04:55:41;5.13;;;2.80;;
71696;SDS011;68167;59.120;37.898;2023-03-05T04:58:08;3.23;;;1.93;;
71696;SDS011;68167;59.120;37.898;2023-03-05T05:00:35;2.87;;;2.13;;
71696;SDS011;68167;59.120;37.898;2023-03-05T05:03:02;3.77;;;2.07;;
71696;SDS011;68167;59.120;37.898;2023-03-05T05:05:29;2.93;;;1.63;;
71696;SDS011;68167;59.120;37.898;2023-03-05T05:07:56;3.40;;;1.90;;
71696;SDS011;68167;59.120;37.898;2023-03-05T05:10:24;2.90;;;1.77;;
71696;SDS011;68167;59.120;37.898;2023-03-05T05:12:51;6.07;;;2.20;;
71696;SDS011;68167;59.120;37.898;2023-03-05T05:15:18;3.90;;;2.10;;
71696;SDS011;68167;59.120;37.898;2023-03-05T05:17:45;4.33;;;2.20;;
71696;SDS011;68167;59.120;37.898;2023-03-05T05:20:13;3.77;;;2.10;;
71696;SDS011;68167;59.120;37.898;2023-03-05T05:22:41;5.80;;;2.73;;
71696;SDS011;68167;59.120;37.898;2023-03-05T05:25:11;5.40;;;2.83;;
71696;SDS011;68167;59.120;37.898;2023-03-05T05:27:39;5.10;;;2.67;;
71696;SDS011;68167;59.120;37.898;2023-03-05T05:30:06;5.77;;;2.60;;
71696;SDS011;68167;59.120;37.898;2023-03-05T05:32:33;4.27;;;2.97;;
71696;SDS011;68167;59.120;37.898;2023-03-05T05:35:00;6.97;;;3.43;;
71696;SDS011;68167;59.120;37.898;2023-03-05T05:37:28;6.33;;;2.97;;
71696;SDS011;68167;59.120;37.898;2023-03-05T05:39:58;4.63;;;2.57;;
71696;SDS011;68167;59.120;37.898;2023-03-05T05:42:28;6.43;;;3.17;;
71696;SDS011;68167;59.120;37.898;2023-03-05T05:44:54;5.10;;;2.87;;
71696;SDS011;68167;59.120;37.898;2023-03-05T05:47:21;5.43;;;2.63;;
71696;SDS011;68167;59.120;37.898;2023-03-05T05:49:50;5.87;;;2.57;;
71696;SDS011;68167;59.120;37.898;2023-03-05T05:52:17;3.53;;;2.43;;
71696;SDS011;68167;59.120;37.898;2023-03-05T05:54:43;4.00;;;2.43;;
71696;SDS011;68167;59.120;37.898;2023-03-05T05:57:10;5.87;;;2.97;;
71696;SDS011;68167;59.120;37.898;2023-03-05T05:59:36;4.37;;;2.50;;
71696;SDS011;68167;59.120;37.898;2023-03-05T06:02:03;5.30;;;2.97;;
71696;SDS011;68167;59.120;37.898;2023-03-05T06:04:30;4.33;;;2.63;;
71696;SDS011;68167;59.120;37.898;2023-03-05T06:06:57;5.43;;;2.83;;
71696;SDS011;68167;59.120;37.898;2023-03-05T06:09:24;5.27;;;2.93;;
71696;SDS011;68167;59.120;37.898;2023-03-05T06:11:51;5.57;;;3.03;;
71696;SDS011;68167;59.120;37.898;2023-03-05T06:14:17;6.93;;;3.47;;
71696;SDS011;68167;59.120;37.898;2023-03-05T06:16:44;3.93;;;2.40;;
71696;SDS011;68167;59.120;37.898;2023-03-05T06:19:14;4.17;;;2.50;;
71696;SDS011;68167;59.120;37.898;2023-03-05T06:21:41;4.80;;;2.70;;
71696;SDS011;68167;59.120;37.898;2023-03-05T06:24:08;8.67;;;3.40;;
71696;SDS011;68167;59.120;37.898;2023-03-05T06:26:35;6.20;;;3.90;;
71696;SDS011;68167;59.120;37.898;2023-03-05T06:29:02;7.47;;;3.67;;
71696;SDS011;68167;59.120;37.898;2023-03-05T06:31:29;8.20;;;3.13;;
71696;SDS011;68167;59.120;37.898;2023-03-05T06:33:57;7.53;;;3.33;;
71696;SDS011;68167;59.120;37.898;2023-03-05T06:36:28;5.83;;;3.37;;
71696;SDS011;68167;59.120;37.898;2023-03-05T06:38:55;5.07;;;3.30;;
71696;SDS011;68167;59.120;37.898;2023-03-05T06:41:23;6.93;;;3.37;;
71696;SDS011;68167;59.120;37.898;2023-03-05T06:43:52;5.57;;;3.10;;
71696;SDS011;68167;59.120;37.898;2023-03-05T06:46:27;6.37;;;3.77;;
71696;SDS011;68167;59.120;37.898;2023-03-05T06:48:56;5.80;;;3.33;;
71696;SDS011;68167;59.120;37.898;2023-03-05T06:51:26;7.17;;;3.87;;
71696;SDS011;68167;59.120;37.898;2023-03-05T06:53:55;5.73;;;3.30;;
71696;SDS011;68167;59.120;37.898;2023-03-05T06:56:25;6.07;;;3.60;;
71696;SDS011;68167;59.120;37.898;2023-03-05T06:58:52;5.40;;;3.13;;
71696;SDS011;68167;59.120;37.898;2023-03-05T07:01:19;6.23;;;3.27;;
71696;SDS011;68167;59.120;37.898;2023-03-05T07:03:50;7.13;;;3.60;;
71696;SDS011;68167;59.120;37.898;2023-03-05T07:06:17;7.13;;;3.20;;
71696;SDS011;68167;59.120;37.898;2023-03-05T07:08:44;5.57;;;3.33;;
71696;SDS011;68167;59.120;37.898;2023-03-05T07:11:14;7.20;;;3.47;;
71696;SDS011;68167;59.120;37.898;2023-03-05T07:13:44;5.03;;;3.00;;
71696;SDS011;68167;59.120;37.898;2023-03-05T07:16:15;5.47;;;2.40;;
71696;SDS011;68167;59.120;37.898;2023-03-05T07:18:49;4.60;;;2.60;;
71696;SDS011;68167;59.120;37.898;2023-03-05T07:21:17;4.53;;;3.10;;
71696;SDS011;68167;59.120;37.898;2023-03-05T07:23:46;6.30;;;3.17;;
71696;SDS011;68167;59.120;37.898;2023-03-05T07:26:12;4.83;;;2.93;;
71696;SDS011;68167;59.120;37.898;2023-03-05T07:28:39;5.63;;;3.40;;
71696;SDS011;68167;59.120;37.898;2023-03-05T07:31:13;6.07;;;3.53;;
71696;SDS011;68167;59.120;37.898;2023-03-05T07:33:42;4.63;;;2.83;;
71696;SDS011;68167;59.120;37.898;2023-03-05T07:36:08;4.97;;;2.90;;
71696;SDS011;68167;59.120;37.898;2023-03-05T07:38:36;6.83;;;3.30;;
71696;SDS011;68167;59.120;37.898;2023-03-05T07:41:03;5.63;;;3.20;;
71696;SDS011;68167;59.120;37.898;2023-03-05T07:43:31;5.90;;;2.90;;
71696;SDS011;68167;59.120;37.898;2023-03-05T07:46:02;4.83;;;3.20;;
71696;SDS011;68167;59.120;37.898;2023-03-05T07:48:29;5.27;;;3.23;;
71696;SDS011;68167;59.120;37.898;2023-03-05T07:51:06;6.80;;;3.30;;
71696;SDS011;68167;59.120;37.898;2023-03-05T07:53:39;6.07;;;3.50;;
71696;SDS011;68167;59.120;37.898;2023-03-05T07:56:07;6.03;;;3.37;;
71696;SDS011;68167;59.120;37.898;2023-03-05T07:58:34;4.23;;;2.77;;
71696;SDS011;68167;59.120;37.898;2023-03-05T08:01:01;5.47;;;2.70;;
71696;SDS011;68167;59.120;37.898;2023-03-05T08:03:30;4.73;;;3.03;;
71696;SDS011;68167;59.120;37.898;2023-03-05T08:05:57;6.13;;;2.90;;
71696;SDS011;68167;59.120;37.898;2023-03-05T08:08:24;4.70;;;3.17;;
71696;SDS011;68167;59.120;37.898;2023-03-05T08:10:50;6.27;;;3.70;;
71696;SDS011;68167;59.120;37.898;2023-03-05T08:13:19;7.17;;;3.27;;
71696;SDS011;68167;59.120;37.898;2023-03-05T08:15:46;13.27;;;3.60;;
71696;SDS011;68167;59.120;37.898;2023-03-05T08:18:13;5.73;;;2.93;;
71696;SDS011;68167;59.120;37.898;2023-03-05T08:20:46;5.23;;;3.07;;
71696;SDS011;68167;59.120;37.898;2023-03-05T08:23:13;5.87;;;3.03;;
71696;SDS011;68167;59.120;37.898;2023-03-05T08:25:39;5.40;;;3.27;;
71696;SDS011;68167;59.120;37.898;2023-03-05T08:28:06;6.37;;;3.70;;
71696;SDS011;68167;59.120;37.898;2023-03-05T08:30:32;8.13;;;4.00;;
71696;SDS011;68167;59.120;37.898;2023-03-05T08:32:58;6.03;;;4.10;;
71696;SDS011;68167;59.120;37.898;2023-03-05T08:35:25;7.30;;;3.80;;
71696;SDS011;68167;59.120;37.898;2023-03-05T08:37:51;6.50;;;3.27;;
71696;SDS011;68167;59.120;37.898;2023-03-05T08:40:17;6.77;;;3.63;;
71696;SDS011;68167;59.120;37.898;2023-03-05T08:42:44;5.67;;;3.10;;
71696;SDS011;68167;59.120;37.898;2023-03-05T08:45:11;5.23;;;3.07;;
71696;SDS011;68167;59.120;37.898;2023-03-05T08:47:37;4.90;;;3.30;;
71696;SDS011;68167;59.120;37.898;2023-03-05T08:50:05;7.23;;;3.30;;
71696;SDS011;68167;59.120;37.898;2023-03-05T08:52:32;7.60;;;3.60;;
71696;SDS011;68167;59.120;37.898;2023-03-05T08:54:58;8.07;;;3.60;;
71696;SDS011;68167;59.120;37.898;2023-03-05T08:57:26;5.57;;;3.60;;
71696;SDS011;68167;59.120;37.898;2023-03-05T08:59:53;5.03;;;2.80;;
71696;SDS011;68167;59.120;37.898;2023-03-05T09:02:22;3.30;;;2.57;;
71696;SDS011;68167;59.120;37.898;2023-03-05T09:04:48;6.23;;;3.67;;
71696;SDS011;68167;59.120;37.898;2023-03-05T09:07:18;7.30;;;3.70;;
71696;SDS011;68167;59.120;37.898;2023-03-05T09:09:44;6.20;;;3.57;;
71696;SDS011;68167;59.120;37.898;2023-03-05T09:12:11;6.67;;;3.43;;
71696;SDS011;68167;59.120;37.898;2023-03-05T09:14:39;6.20;;;2.97;;
71696;SDS011;68167;59.120;37.898;2023-03-05T09:17:07;4.70;;;2.83;;
71696;SDS011;68167;59.120;37.898;2023-03-05T09:19:34;5.77;;;3.30;;
71696;SDS011;68167;59.120;37.898;2023-03-05T09:22:00;5.03;;;2.97;;
71696;SDS011;68167;59.120;37.898;2023-03-05T09:24:27;3.93;;;3.20;;
71696;SDS011;68167;59.120;37.898;2023-03-05T09:26:56;7.07;;;3.60;;
71696;SDS011;68167;59.120;37.898;2023-03-05T09:29:25;6.00;;;3.10;;
71696;SDS011;68167;59.120;37.898;2023-03-05T09:31:52;5.80;;;3.10;;
71696;SDS011;68167;59.120;37.898;2023-03-05T09:34:19;6.47;;;3.47;;
71696;SDS011;68167;59.120;37.898;2023-03-05T09:36:46;7.83;;;3.10;;
71696;SDS011;68167;59.120;37.898;2023-03-05T09:39:13;4.03;;;2.83;;
71696;SDS011;68167;59.120;37.898;2023-03-05T09:52:55;4.53;;;2.90;;
71696;SDS011;68167;59.120;37.898;2023-03-05T09:58:03;5.13;;;2.87;;
71696;SDS011;68167;59.120;37.898;2023-03-05T10:00:40;4.10;;;2.47;;
71696;SDS011;68167;59.120;37.898;2023-03-05T10:06:26;5.70;;;2.93;;
71696;SDS011;68167;59.120;37.898;2023-03-05T10:11:56;5.67;;;3.03;;
71696;SDS011;68167;59.120;37.898;2023-03-05T10:14:28;5.80;;;3.27;;
71696;SDS011;68167;59.120;37.898;2023-03-05T10:16:59;5.30;;;3.47;;
71696;SDS011;68167;59.120;37.898;2023-03-05T10:22:24;5.33;;;3.20;;
71696;SDS011;68167;59.120;37.898;2023-03-05T10:24:59;4.37;;;2.90;;
71696;SDS011;68167;59.120;37.898;2023-03-05T10:27:56;4.33;;;2.77;;
71696;SDS011;68167;59.120;37.898;2023-03-05T10:30:47;4.13;;;2.90;;
71696;SDS011;68167;59.120;37.898;2023-03-05T10:39:13;3.83;;;2.87;;
71696;SDS011;68167;59.120;37.898;2023-03-05T10:41:54;5.60;;;2.67;;
71696;SDS011;68167;59.120;37.898;2023-03-05T10:47:37;4.83;;;3.13;;
71696;SDS011;68167;59.120;37.898;2023-03-05T10:50:23;5.67;;;3.13;;
71696;SDS011;68167;59.120;37.898;2023-03-05T10:53:05;5.47;;;3.33;;
71696;SDS011;68167;59.120;37.898;2023-03-05T10:55:35;5.30;;;3.33;;
71696;SDS011;68167;59.120;37.898;2023-03-05T10:58:08;4.93;;;3.20;;
71696;SDS011;68167;59.120;37.898;2023-03-05T11:00:57;5.10;;;3.10;;
71696;SDS011;68167;59.120;37.898;2023-03-05T11:06:36;4.47;;;2.97;;
71696;SDS011;68167;59.120;37.898;2023-03-05T11:09:29;4.43;;;2.97;;
71696;SDS011;68167;59.120;37.898;2023-03-05T11:12:05;4.67;;;3.00;;
71696;SDS011;68167;59.120;37.898;2023-03-05T11:14:38;5.73;;;2.93;;
71696;SDS011;68167;59.120;37.898;2023-03-05T11:19:55;5.83;;;3.47;;
71696;SDS011;68167;59.120;37.898;2023-03-05T11:22:23;6.77;;;3.67;;
71696;SDS011;68167;59.120;37.898;2023-03-05T11:27:36;5.10;;;3.40;;
71696;SDS011;68167;59.120;37.898;2023-03-05T11:30:18;4.47;;;2.80;;
71696;SDS011;68167;59.120;37.898;2023-03-05T11:32:49;5.00;;;3.07;;
71696;SDS011;68167;59.120;37.898;2023-03-05T11:35:30;6.63;;;3.87;;
71696;SDS011;68167;59.120;37.898;2023-03-05T11:37:59;5.20;;;3.20;;
71696;SDS011;68167;59.120;37.898;2023-03-05T11:40:31;6.60;;;4.30;;
71696;SDS011;68167;59.120;37.898;2023-03-05T11:43:02;7.13;;;3.87;;
71696;SDS011;68167;59.120;37.898;2023-03-05T11:45:30;6.23;;;3.80;;
71696;SDS011;68167;59.120;37.898;2023-03-05T11:48:05;5.80;;;3.57;;
71696;SDS011;68167;59.120;37.898;2023-03-05T11:50:36;5.13;;;3.53;;
71696;SDS011;68167;59.120;37.898;2023-03-05T11:56:02;4.20;;;3.07;;
71696;SDS011;68167;59.120;37.898;2023-03-05T11:58:54;4.37;;;2.70;;
71696;SDS011;68167;59.120;37.898;2023-03-05T12:01:31;5.33;;;3.03;;
71696;SDS011;68167;59.120;37.898;2023-03-05T12:04:01;3.03;;;2.27;;
71696;SDS011;68167;59.120;37.898;2023-03-05T12:06:37;3.83;;;2.60;;
71696;SDS011;68167;59.120;37.898;2023-03-05T12:09:12;4.97;;;2.93;;
71696;SDS011;68167;59.120;37.898;2023-03-05T12:11:40;6.67;;;3.00;;
71696;SDS011;68167;59.120;37.898;2023-03-05T12:17:42;6.20;;;2.70;;
71696;SDS011;68167;59.120;37.898;2023-03-05T12:20:05;7.93;;;2.93;;
71696;SDS011;68167;59.120;37.898;2023-03-05T12:22:37;5.33;;;2.90;;
71696;SDS011;68167;59.120;37.898;2023-03-05T12:25:27;5.57;;;2.80;;
71696;SDS011;68167;59.120;37.898;2023-03-05T12:28:13;4.73;;;3.20;;
71696;SDS011;68167;59.120;37.898;2023-03-05T12:33:27;5.03;;;3.20;;
71696;SDS011;68167;59.120;37.898;2023-03-05T12:38:53;7.40;;;3.93;;
71696;SDS011;68167;59.120;37.898;2023-03-05T12:46:38;5.87;;;3.10;;
71696;SDS011;68167;59.120;37.898;2023-03-05T12:51:47;6.77;;;3.67;;
71696;SDS011;68167;59.120;37.898;2023-03-05T12:56:44;5.13;;;3.07;;
71696;SDS011;68167;59.120;37.898;2023-03-05T12:59:12;6.73;;;3.47;;
71696;SDS011;68167;59.120;37.898;2023-03-05T13:04:46;6.43;;;3.00;;
71696;SDS011;68167;59.120;37.898;2023-03-05T13:07:14;5.00;;;3.20;;
71696;SDS011;68167;59.120;37.898;2023-03-05T13:09:55;5.10;;;3.27;;
71696;SDS011;68167;59.120;37.898;2023-03-05T13:12:24;4.83;;;3.03;;
71696;SDS011;68167;59.120;37.898;2023-03-05T13:17:41;6.27;;;3.10;;
71696;SDS011;68167;59.120;37.898;2023-03-05T13:20:26;6.50;;;3.40;;
71696;SDS011;68167;59.120;37.898;2023-03-05T13:25:41;4.70;;;3.30;;
71696;SDS011;68167;59.120;37.898;2023-03-05T13:28:13;5.97;;;2.97;;
71696;SDS011;68167;59.120;37.898;2023-03-05T13:30:54;4.90;;;3.43;;
71696;SDS011;68167;59.120;37.898;2023-03-05T13:33:27;6.63;;;3.83;;
71696;SDS011;68167;59.120;37.898;2023-03-05T13:35:55;4.63;;;3.00;;
71696;SDS011;68167;59.120;37.898;2023-03-05T13:41:01;5.60;;;3.30;;
71696;SDS011;68167;59.120;37.898;2023-03-05T13:43:42;6.47;;;3.77;;
71696;SDS011;68167;59.120;37.898;2023-03-05T13:46:09;5.87;;;3.70;;
71696;SDS011;68167;59.120;37.898;2023-03-05T13:48:36;5.87;;;3.57;;
71696;SDS011;68167;59.120;37.898;2023-03-05T13:51:03;6.80;;;3.97;;
71696;SDS011;68167;59.120;37.898;2023-03-05T13:53:32;5.67;;;3.17;;
71696;SDS011;68167;59.120;37.898;2023-03-05T13:56:06;6.27;;;3.17;;
71696;SDS011;68167;59.120;37.898;2023-03-05T14:01:21;5.87;;;3.30;;
71696;SDS011;68167;59.120;37.898;2023-03-05T14:04:38;6.33;;;3.90;;
71696;SDS011;68167;59.120;37.898;2023-03-05T14:12:05;6.57;;;3.47;;
71696;SDS011;68167;59.120;37.898;2023-03-05T14:14:47;6.03;;;3.50;;
71696;SDS011;68167;59.120;37.898;2023-03-05T14:20:05;5.17;;;2.90;;
71696;SDS011;68167;59.120;37.898;2023-03-05T14:22:48;3.67;;;2.60;;
71696;SDS011;68167;59.120;37.898;2023-03-05T14:25:26;5.13;;;3.23;;
71696;SDS011;68167;59.120;37.898;2023-03-05T14:27:59;4.40;;;2.40;;
71696;SDS011;68167;59.120;37.898;2023-03-05T14:30:31;5.57;;;2.80;;
71696;SDS011;68167;59.120;37.898;2023-03-05T14:33:01;5.40;;;2.70;;
71696;SDS011;68167;59.120;37.898;2023-03-05T14:35:29;5.67;;;2.73;;
71696;SDS011;68167;59.120;37.898;2023-03-05T14:37:56;5.17;;;2.53;;
71696;SDS011;68167;59.120;37.898;2023-03-05T14:40:31;7.10;;;3.63;;
71696;SDS011;68167;59.120;37.898;2023-03-05T14:43:00;5.10;;;2.90;;
71696;SDS011;68167;59.120;37.898;2023-03-05T14:45:33;5.03;;;2.80;;
71696;SDS011;68167;59.120;37.898;2023-03-05T14:48:06;7.07;;;3.07;;
71696;SDS011;68167;59.120;37.898;2023-03-05T14:50:37;5.20;;;3.30;;
71696;SDS011;68167;59.120;37.898;2023-03-05T14:53:09;6.20;;;3.13;;
71696;SDS011;68167;59.120;37.898;2023-03-05T14:55:42;6.20;;;3.20;;
71696;SDS011;68167;59.120;37.898;2023-03-05T14:58:14;6.43;;;3.17;;
71696;SDS011;68167;59.120;37.898;2023-03-05T15:00:43;5.93;;;3.57;;
71696;SDS011;68167;59.120;37.898;2023-03-05T15:03:13;6.13;;;3.50;;
71696;SDS011;68167;59.120;37.898;2023-03-05T15:05:42;6.33;;;4.03;;
71696;SDS011;68167;59.120;37.898;2023-03-05T15:08:17;7.43;;;3.90;;
71696;SDS011;68167;59.120;37.898;2023-03-05T15:10:47;5.80;;;3.23;;
71696;SDS011;68167;59.120;37.898;2023-03-05T15:13:15;6.93;;;3.37;;
71696;SDS011;68167;59.120;37.898;2023-03-05T15:15:42;5.53;;;3.40;;
71696;SDS011;68167;59.120;37.898;2023-03-05T15:18:14;4.70;;;3.07;;
71696;SDS011;68167;59.120;37.898;2023-03-05T15:20:43;5.37;;;3.40;;
71696;SDS011;68167;59.120;37.898;2023-03-05T15:23:11;9.97;;;4.90;;
71696;SDS011;68167;59.120;37.898;2023-03-05T15:25:39;7.67;;;4.17;;
71696;SDS011;68167;59.120;37.898;2023-03-05T15:28:06;8.53;;;4.47;;
71696;SDS011;68167;59.120;37.898;2023-03-05T15:30:34;7.13;;;4.57;;
71696;SDS011;68167;59.120;37.898;2023-03-05T15:33:05;6.20;;;3.70;;
71696;SDS011;68167;59.120;37.898;2023-03-05T15:35:32;6.13;;;3.97;;
71696;SDS011;68167;59.120;37.898;2023-03-05T15:38:02;6.90;;;3.97;;
71696;SDS011;68167;59.120;37.898;2023-03-05T15:40:29;6.17;;;3.43;;
71696;SDS011;68167;59.120;37.898;2023-03-05T15:42:56;6.43;;;3.73;;
71696;SDS011;68167;59.120;37.898;2023-03-05T15:45:24;7.67;;;4.00;;
71696;SDS011;68167;59.120;37.898;2023-03-05T15:47:51;6.37;;;3.60;;
71696;SDS011;68167;59.120;37.898;2023-03-05T15:50:19;7.57;;;3.80;;
71696;SDS011;68167;59.120;37.898;2023-03-05T15:52:47;7.43;;;3.90;;
71696;SDS011;68167;59.120;37.898;2023-03-05T15:55:14;6.27;;;3.40;;
71696;SDS011;68167;59.120;37.898;2023-03-05T15:57:41;5.87;;;3.13;;
71696;SDS011;68167;59.120;37.898;2023-03-05T16:00:10;7.00;;;3.63;;
71696;SDS011;68167;59.120;37.898;2023-03-05T16:02:37;5.97;;;3.50;;
71696;SDS011;68167;59.120;37.898;2023-03-05T16:05:04;6.90;;;4.07;;
71696;SDS011;68167;59.120;37.898;2023-03-05T16:07:32;6.77;;;3.50;;
71696;SDS011;68167;59.120;37.898;2023-03-05T16:10:01;5.17;;;3.50;;
71696;SDS011;68167;59.120;37.898;2023-03-05T16:12:34;6.47;;;3.50;;